Time,TemperatureF,DewpointF,PressureIn,WindDirection,WindDirectionDegrees,WindSpeedMPH,WindSpeedGustMPH,Humidity,HourlyPrecipIn,Conditions,Clouds,dailyrainin,SoftwareType,DateUTC
2013-10-22 00:00:00,39.5,31.2,29.95,WNW,297,2.0,11.0,72,0.00,,---,0.00,VWS V14.01,2013-10-22 04:00:00,
2013-10-22 00:30:00,38.9,31.3,29.94,WNW,287,6.0,11.0,74,0.00,,---,0.00,VWS V14.01,2013-10-22 04:30:00,
2013-10-22 01:00:00,38.3,31.1,29.94,West,270,5.0,9.0,75,0.00,,---,0.00,VWS V14.01,2013-10-22 05:00:00,
2013-10-22 01:30:00,37.5,30.6,29.95,West,278,4.0,9.0,76,0.00,,---,0.00,VWS V14.01,2013-10-22 05:30:00,
2013-10-22 02:00:00,37.2,30.7,29.95,WNW,288,3.0,8.0,77,0.00,,---,0.00,VWS V14.01,2013-10-22 06:00:00,
2013-10-22 02:30:00,36.9,30.7,29.95,WSW,255,5.0,8.0,78,0.00,,---,0.00,VWS V14.01,2013-10-22 06:30:00,
2013-10-22 03:00:00,36.6,29.8,29.96,West,261,6.0,9.0,76,0.00,,---,0.00,VWS V14.01,2013-10-22 07:00:00,
2013-10-22 03:30:00,35.9,29.7,29.97,West,274,4.0,9.0,78,0.00,,---,0.00,VWS V14.01,2013-10-22 07:30:00,
2013-10-22 04:00:00,35.3,30.1,29.97,West,269,3.0,9.0,81,0.00,,---,0.00,VWS V14.01,2013-10-22 08:00:00,
2013-10-22 04:30:00,35.3,29.5,29.97,West,268,5.0,11.0,79,0.00,,---,0.00,VWS V14.01,2013-10-22 08:30:00,
2013-10-22 05:00:00,35.1,29.9,29.96,WSW,253,4.0,10.0,81,0.00,,---,0.00,VWS V14.01,2013-10-22 09:00:00,
2013-10-22 05:30:00,34.2,29.3,29.97,WNW,284,5.0,7.0,82,0.00,,---,0.00,VWS V14.01,2013-10-22 09:30:00,
2013-10-22 06:00:00,34.7,29.8,29.97,WNW,287,5.0,8.0,82,0.00,,---,0.00,VWS V14.01,2013-10-22 10:00:00,
2013-10-22 06:30:00,35.1,29.9,29.97,WNW,284,5.0,9.0,81,0.00,,---,0.00,VWS V14.01,2013-10-22 10:30:00,
2013-10-22 07:00:00,34.4,29.8,29.98,West,276,5.0,9.0,83,0.00,,---,0.00,VWS V14.01,2013-10-22 11:00:00,
2013-10-22 07:30:00,34.2,29.6,29.98,West,269,5.0,10.0,83,0.00,,---,0.00,VWS V14.01,2013-10-22 11:30:00,
2013-10-22 08:00:00,34.1,29.2,29.99,West,264,4.0,10.0,82,0.00,,---,0.00,VWS V14.01,2013-10-22 12:00:00,
2013-10-22 08:30:00,33.4,28.8,29.99,SW,231,4.0,9.0,83,0.00,,---,0.00,VWS V14.01,2013-10-22 12:30:00,
2013-10-22 09:00:00,33.1,28.2,30.00,SW,224,2.0,7.0,82,0.00,,---,0.00,VWS V14.01,2013-10-22 13:00:00,
2013-10-22 09:30:00,34.3,29.4,30.00,SW,226,3.0,10.0,82,0.00,,---,0.00,VWS V14.01,2013-10-22 13:30:00,
2013-10-22 10:00:00,35.9,29.7,30.00,West,263,4.0,9.0,78,0.00,,---,0.00,VWS V14.01,2013-10-22 14:00:00,
2013-10-22 10:30:00,37.8,29.9,30.00,West,267,5.0,9.0,73,0.00,,---,0.00,VWS V14.01,2013-10-22 14:30:00,
2013-10-22 11:00:00,39.4,30.4,29.99,WNW,290,5.0,11.0,70,0.00,,---,0.00,VWS V14.01,2013-10-22 15:00:00,
2013-10-22 11:30:00,40.7,30.6,29.99,West,265,4.0,9.0,67,0.00,,---,0.00,VWS V14.01,2013-10-22 15:30:00,
2013-10-22 12:00:00,42.0,30.7,29.98,WNW,291,3.0,10.0,64,0.00,,---,0.00,VWS V14.01,2013-10-22 16:00:00,
2013-10-22 12:30:00,43.6,30.6,29.97,West,260,4.0,11.0,60,0.00,,---,0.00,VWS V14.01,2013-10-22 16:30:00,
2013-10-22 13:00:00,44.4,29.7,29.96,SW,231,4.0,11.0,56,0.00,,---,0.00,VWS V14.01,2013-10-22 17:00:00,
2013-10-22 13:30:00,45.7,30.5,29.95,West,263,5.0,14.0,55,0.00,,---,0.00,VWS V14.01,2013-10-22 17:30:00,
2013-10-22 14:00:00,46.3,28.2,29.94,West,267,5.0,11.0,49,0.00,,---,0.00,VWS V14.01,2013-10-22 18:00:00,
2013-10-22 14:30:00,46.3,29.2,29.92,WNW,290,5.0,8.0,51,0.00,,---,0.00,VWS V14.01,2013-10-22 18:30:00,
2013-10-22 15:00:00,46.6,28.0,29.92,West,273,4.0,8.0,48,0.00,,---,0.00,VWS V14.01,2013-10-22 19:00:00,
2013-10-22 15:30:00,46.6,29.9,29.92,West,277,6.0,16.0,52,0.00,,---,0.00,VWS V14.01,2013-10-22 19:30:00,
2013-10-22 16:00:00,44.5,33.9,29.93,WNW,283,8.0,15.0,66,0.00,,---,0.00,VWS V14.01,2013-10-22 20:00:00,
2013-10-22 16:30:00,41.3,36.2,29.94,WNW,284,8.0,13.0,82,0.00,,---,0.00,VWS V14.01,2013-10-22 20:30:00,
2013-10-22 17:00:00,37.9,34.4,29.95,NW,322,6.0,11.0,87,0.01,,---,0.01,VWS V14.01,2013-10-22 21:00:00,
2013-10-22 17:30:00,36.5,33.8,29.95,North,352,0.0,5.0,90,0.04,,---,0.04,VWS V14.01,2013-10-22 21:30:00,
2013-10-22 18:00:00,36.0,33.9,29.94,NNW,333,0.0,5.0,92,0.06,,---,0.06,VWS V14.01,2013-10-22 22:00:00,
2013-10-22 18:30:00,35.9,33.8,29.94,NNE,18,0.0,1.0,92,0.06,,---,0.07,VWS V14.01,2013-10-22 22:30:00,
2013-10-22 19:00:00,35.9,34.1,29.94,NNE,19,0.0,1.0,93,0.03,,---,0.07,VWS V14.01,2013-10-22 23:00:00,
2013-10-22 19:30:00,35.9,34.1,29.94,NNE,18,0.0,1.0,93,0.02,,---,0.08,VWS V14.01,2013-10-22 23:30:00,
2013-10-22 20:00:00,35.8,34.2,29.94,NNE,18,0.0,1.0,94,0.01,,---,0.08,VWS V14.01,2013-10-23 00:00:00,
2013-10-22 20:30:00,35.9,34.3,29.94,ENE,72,0.0,1.0,94,0.01,,---,0.08,VWS V14.01,2013-10-23 00:30:00,
2013-10-22 21:00:00,36.0,34.4,29.93,East,88,0.0,2.0,94,0.01,,---,0.09,VWS V14.01,2013-10-23 01:00:00,
2013-10-22 21:30:00,36.0,34.7,29.93,East,88,0.0,1.0,95,0.01,,---,0.09,VWS V14.01,2013-10-23 01:30:00,
2013-10-22 22:00:00,36.1,34.8,29.93,East,88,0.0,1.0,95,0.02,,---,0.10,VWS V14.01,2013-10-23 02:00:00,
2013-10-22 22:30:00,35.9,34.6,29.93,East,79,1.0,1.0,95,0.01,,---,0.10,VWS V14.01,2013-10-23 02:30:00,
2013-10-22 23:00:00,35.9,34.6,29.92,East,79,0.0,1.0,95,0.02,,---,0.11,VWS V14.01,2013-10-23 03:00:00,
2013-10-22 23:30:00,35.9,34.6,29.91,SE,134,0.0,1.0,95,0.01,,---,0.11,VWS V14.01,2013-10-23 03:30:00,